Airfield :
LOGIN :

Register | Disclaimer

   EN    FR    IT 

 










Legend :    VFR   Marginal VFR   IFR   Intensive IFR   Very Intensive IFR
Visi :
Ceiling :
>= 8 km
>= 3000ft
5 to 8 km
1000 to 3000 ft
1500m to 5 km
500 to 1000 ft
800 to 1500m
200 to 500 ft
< 800m
< 200 ft
Symbols :   Thunderstorms  Fog  Heavy snow  Heavy precipitations  Wind > 20 kt
SIGMETs :     Misc.  Thunderstorms  Icing  Turbulence  Mountain Waves  Volcanic Ashes






- Airport Elevation : 796 ft
- IATA code : SYT


LFLN - Saint-Yan

CURRENT METAR :
  • 200000Z AUTO 34001KT CAVOK 12/11 Q1005

EXPIRED METARs :
  • 192330Z AUTO 08002KT CAVOK 13/12 Q1005
  • 192300Z AUTO 08003KT CAVOK 13/13 Q1005
  • 192230Z AUTO 08002KT CAVOK 13/12 Q1005 TEMPO 2000 BR BKN003
  • 192200Z AUTO 06005KT CAVOK 14/13 Q1005 TEMPO 2000 BR BKN003
  • 192130Z AUTO 05005KT CAVOK 14/13 Q1005 TEMPO 2000 BR BKN003

TAF TAF LFLN
Valid from the 19 at 18:00 until the 20 at 03:00 UTC


191700Z 1918/2003 12004KT 9999 FEW015 BKN050
TEMPO 1918/1924 4000 SHRA BKN035TCU
PROB40
TEMPO 1918/1922 2000 SHRA BKN005 SCT030CB
TEMPO 1922/2003 2000 BR BKN003



MET'MAP, your aeronautical weather chart ! - Copyright ORBIFLY December 2007 - Disclaimer

ORBIFLY MET'MAP TEAM :

Programming & Development : Alexandra Zaïnal
Concept & Development : Baudouin d'Aumeries
Co-Development & Prog : Marc-Olivier Méhu
Technical & hardware support : Manuel Goepfert

Contact : metmap@orbifly.com




SOURCES & CREDITS :

   NOAA